Time;durP1;ratioP1;P1;durP2;ratioP2;P2;SDS_P1;SDS_P2;PMS_P1;PMS_P2;Temp;Humidity;BMP_temperature;BMP_pressure;BME280_temperature;BME280_humidity;BME280_pressure;Samples;Min_cycle;Max_cycle;Signal;HPM_P1;HPM_P2
2023/08/12 00:02:09;;;;;;;5.70;3.72;;;19.80;99.90;;;;;;7374237;19;20505;-58
2023/08/12 00:04:35;;;;;;;6.00;4.00;;;19.70;99.90;;;;;;7368297;19;20046;-58
2023/08/12 00:07:01;;;;;;;7.63;5.20;;;19.80;99.90;;;;;;7371138;19;20014;-58
2023/08/12 00:09:27;;;;;;;9.13;4.22;;;19.70;99.90;;;;;;7374888;19;20517;-58
2023/08/12 00:11:54;;;;;;;7.10;4.38;;;19.70;99.90;;;;;;7375227;19;20010;-58
2023/08/12 00:14:20;;;;;;;6.57;4.22;;;19.60;99.90;;;;;;7369869;19;20039;-58
2023/08/12 00:16:46;;;;;;;5.88;4.40;;;19.60;99.90;;;;;;7361973;19;20490;-58
2023/08/12 00:19:13;;;;;;;8.55;5.32;;;19.60;99.90;;;;;;7370479;19;20018;-58
2023/08/12 00:21:40;;;;;;;9.25;5.60;;;19.50;99.90;;;;;;7367943;19;20508;-58
2023/08/12 00:24:06;;;;;;;7.70;5.63;;;19.50;99.90;;;;;;7373025;19;20458;-58
2023/08/12 00:26:33;;;;;;;7.95;4.97;;;19.40;99.90;;;;;;7368368;19;20054;-57
2023/08/12 00:29:02;;;;;;;7.88;6.05;;;19.40;99.90;;;;;;7371110;19;20026;-61
2023/08/12 00:31:28;;;;;;;6.40;5.22;;;19.40;99.90;;;;;;7373195;19;20019;-57
2023/08/12 00:33:58;;;;;;;8.43;5.55;;;19.40;99.90;;;;;;7373257;19;20573;-58
2023/08/12 00:36:24;;;;;;;7.38;5.80;;;19.40;99.90;;;;;;7373472;19;20623;-58
2023/08/12 00:38:50;;;;;;;10.02;5.63;;;19.40;99.90;;;;;;7376362;19;20416;-58
2023/08/12 00:41:16;;;;;;;7.75;5.97;;;19.40;99.90;;;;;;7373748;19;20034;-58
2023/08/12 00:43:42;;;;;;;8.77;6.18;;;19.40;99.90;;;;;;7373039;19;20388;-58
2023/08/12 00:46:09;;;;;;;8.77;6.70;;;19.40;99.90;;;;;;7376634;19;20018;-58
2023/08/12 00:48:36;;;;;;;10.07;7.07;;;19.40;99.90;;;;;;7377716;19;20411;-59
2023/08/12 00:51:03;;;;;;;10.82;6.82;;;19.40;99.90;;;;;;7374804;19;20052;-58
2023/08/12 00:53:29;;;;;;;12.57;6.43;;;19.40;99.90;;;;;;7376387;19;20021;-58
2023/08/12 00:55:56;;;;;;;9.68;6.32;;;19.30;99.90;;;;;;7376792;19;20085;-58
2023/08/12 00:58:23;;;;;;;8.93;7.15;;;19.40;99.90;;;;;;7373198;19;20106;-58
2023/08/12 01:00:50;;;;;;;8.43;6.78;;;19.30;99.90;;;;;;7377848;19;20026;-58
2023/08/12 01:03:19;;;;;;;11.32;7.47;;;19.30;99.90;;;;;;7375463;19;20021;-58
2023/08/12 01:05:46;;;;;;;11.85;7.43;;;19.20;99.90;;;;;;7377708;19;20048;-58
2023/08/12 01:08:13;;;;;;;11.95;7.95;;;19.20;99.90;;;;;;7376727;19;20022;-58
2023/08/12 01:10:45;;;;;;;13.82;8.60;;;19.20;99.90;;;;;;7375107;19;20010;-58
2023/08/12 01:13:36;;;;;;;12.02;8.13;;;19.10;99.90;;;;;;7369820;19;20995;-59
2023/08/12 01:16:07;;;;;;;10.63;8.10;;;19.10;99.90;;;;;;7378143;19;20025;-57
2023/08/12 01:18:34;;;;;;;10.93;8.27;;;19.10;99.90;;;;;;7373537;19;20022;-58
2023/08/12 01:21:03;;;;;;;17.52;9.70;;;19.00;99.90;;;;;;7375386;19;20018;-58
2023/08/12 01:23:31;;;;;;;11.68;8.95;;;19.10;99.90;;;;;;7377436;19;20567;-58
2023/08/12 01:25:58;;;;;;;12.23;9.45;;;19.10;99.90;;;;;;7375310;19;20674;-58
2023/08/12 01:28:24;;;;;;;13.20;9.90;;;19.10;99.90;;;;;;7373889;19;20018;-59
2023/08/12 01:31:00;;;;;;;13.95;10.80;;;19.10;99.90;;;;;;7376928;19;20497;-58
2023/08/12 01:34:02;;;;;;;11.60;9.88;;;19.10;99.90;;;;;;7371286;19;20114;-59
2023/08/12 01:36:31;;;;;;;13.82;10.27;;;19.00;99.90;;;;;;7373229;19;21124;-58
2023/08/12 01:38:59;;;;;;;15.88;11.18;;;19.00;99.90;;;;;;7374294;19;20023;-59
2023/08/12 01:41:26;;;;;;;14.73;10.82;;;18.90;99.90;;;;;;7368977;19;20025;-58
2023/08/12 01:43:53;;;;;;;15.55;11.20;;;18.80;99.90;;;;;;7372675;19;20078;-58
2023/08/12 01:46:19;;;;;;;15.45;11.05;;;18.90;99.90;;;;;;7371416;19;20022;-59
2023/08/12 01:48:45;;;;;;;15.48;10.82;;;18.80;99.90;;;;;;7372318;19;20045;-60
2023/08/12 01:51:12;;;;;;;14.07;11.27;;;18.80;99.90;;;;;;7375132;19;20021;-58
2023/08/12 01:53:38;;;;;;;14.13;11.15;;;18.70;99.90;;;;;;7371412;19;20051;-58
2023/08/12 01:56:07;;;;;;;13.68;11.18;;;18.70;99.90;;;;;;7374005;19;20450;-58
2023/08/12 01:58:36;;;;;;;15.10;11.98;;;18.60;99.90;;;;;;7368459;19;20019;-58
2023/08/12 02:01:02;;;;;;;12.35;11.10;;;18.60;99.90;;;;;;7374288;19;20021;-58
2023/08/12 02:03:28;;;;;;;15.45;11.90;;;18.60;99.90;;;;;;7372233;19;20026;-58
2023/08/12 02:05:55;;;;;;;14.98;11.32;;;18.60;99.90;;;;;;7376029;19;20074;-58
2023/08/12 02:08:24;;;;;;;14.85;11.80;;;18.60;99.90;;;;;;7374733;19;20025;-58
2023/08/12 02:10:50;;;;;;;14.13;12.20;;;18.60;99.90;;;;;;7372790;19;20418;-58
2023/08/12 02:13:17;;;;;;;15.55;13.23;;;18.70;99.90;;;;;;7374839;19;20018;-58
2023/08/12 02:15:43;;;;;;;17.13;12.88;;;18.70;99.90;;;;;;7366857;19;20014;-59
2023/08/12 02:18:12;;;;;;;18.67;13.88;;;18.70;99.90;;;;;;7373570;19;20018;-58
2023/08/12 02:20:40;;;;;;;18.73;14.38;;;18.80;99.90;;;;;;7374536;19;20022;-59
2023/08/12 02:23:06;;;;;;;16.75;13.23;;;18.80;99.90;;;;;;7373694;19;20022;-58
2023/08/12 02:25:33;;;;;;;17.58;13.35;;;18.80;99.90;;;;;;7369795;19;20568;-59
2023/08/12 02:28:02;;;;;;;19.50;13.77;;;18.90;99.90;;;;;;7375281;19;20077;-59
2023/08/12 02:30:33;;;;;;;17.50;14.85;;;18.90;99.90;;;;;;7371812;19;20569;-61
2023/08/12 02:33:02;;;;;;;16.45;14.40;;;18.90;99.90;;;;;;7376649;19;20082;-59
2023/08/12 02:35:28;;;;;;;18.45;13.95;;;18.90;99.90;;;;;;7374207;19;20026;-59
2023/08/12 02:37:54;;;;;;;17.08;13.88;;;18.90;99.90;;;;;;7375762;19;20521;-59
2023/08/12 02:40:21;;;;;;;18.63;14.50;;;19.00;99.90;;;;;;7371979;19;20026;-59
2023/08/12 02:42:47;;;;;;;19.00;14.20;;;19.00;99.90;;;;;;7376123;19;20046;-58
2023/08/12 02:45:13;;;;;;;18.63;15.25;;;19.00;99.90;;;;;;7372997;19;20023;-58
2023/08/12 02:47:40;;;;;;;18.77;15.07;;;19.00;99.90;;;;;;7373954;19;20022;-59
2023/08/12 02:50:09;;;;;;;19.95;15.50;;;19.10;99.90;;;;;;7371971;19;20023;-58
2023/08/12 02:52:35;;;;;;;17.77;15.95;;;19.10;99.90;;;;;;7372437;19;20025;-58
2023/08/12 02:55:01;;;;;;;18.05;15.90;;;19.10;99.90;;;;;;7371886;19;20451;-59
2023/08/12 02:57:28;;;;;;;21.55;16.40;;;19.10;99.90;;;;;;7376405;19;20081;-58
2023/08/12 02:59:54;;;;;;;18.40;15.80;;;19.20;99.90;;;;;;7371749;19;20019;-59
2023/08/12 03:02:20;;;;;;;18.15;16.23;;;19.20;99.90;;;;;;7373664;19;20111;-59
2023/08/12 03:04:47;;;;;;;19.85;16.52;;;19.20;99.90;;;;;;7371591;19;20022;-58
2023/08/12 03:07:13;;;;;;;18.38;16.40;;;19.20;99.90;;;;;;7375859;19;20625;-59
2023/08/12 03:09:39;;;;;;;21.40;16.38;;;19.20;99.90;;;;;;7371628;19;20018;-58
2023/08/12 03:12:07;;;;;;;21.13;17.02;;;19.10;99.90;;;;;;7370514;19;20022;-59
2023/08/12 03:14:33;;;;;;;23.65;16.98;;;19.10;99.90;;;;;;7368869;19;20446;-58
2023/08/12 03:17:01;;;;;;;20.52;16.85;;;19.00;99.90;;;;;;7369990;19;20577;-58
2023/08/12 03:19:28;;;;;;;19.90;16.52;;;19.00;99.90;;;;;;7372782;19;20496;-58
2023/08/12 03:21:54;;;;;;;22.73;16.73;;;19.10;99.90;;;;;;7374073;19;20042;-58
2023/08/12 03:24:22;;;;;;;20.27;17.33;;;19.10;99.90;;;;;;7371039;19;20497;-58
2023/08/12 03:26:49;;;;;;;22.08;16.92;;;19.10;99.90;;;;;;7372324;19;20031;-58
2023/08/12 03:29:18;;;;;;;21.60;18.95;;;19.10;99.90;;;;;;7373969;19;20121;-63
2023/08/12 03:31:45;;;;;;;25.23;17.42;;;19.10;99.90;;;;;;7371297;19;20025;-59
2023/08/12 03:34:12;;;;;;;20.55;16.83;;;19.10;99.90;;;;;;7370877;19;20021;-58
2023/08/12 03:36:40;;;;;;;17.90;16.02;;;19.10;99.90;;;;;;7369851;19;20042;-59
2023/08/12 03:39:06;;;;;;;18.33;15.95;;;19.10;99.90;;;;;;7372552;19;20018;-59
2023/08/12 03:41:33;;;;;;;26.00;17.70;;;19.10;99.90;;;;;;7372135;19;20102;-59
2023/08/12 03:44:03;;;;;;;19.75;17.20;;;19.10;99.90;;;;;;7371943;19;20035;-58
2023/08/12 03:46:31;;;;;;;20.95;16.85;;;19.10;99.90;;;;;;7374341;19;20021;-59
2023/08/12 03:48:57;;;;;;;22.73;17.05;;;19.10;99.90;;;;;;7373138;19;20533;-59
2023/08/12 03:51:24;;;;;;;20.90;16.85;;;19.10;99.90;;;;;;7370697;19;20430;-58
2023/08/12 03:53:50;;;;;;;20.85;17.52;;;19.10;99.90;;;;;;7370612;19;20090;-58
2023/08/12 03:56:17;;;;;;;19.65;17.05;;;19.10;99.90;;;;;;7373108;19;20506;-59
2023/08/12 03:58:44;;;;;;;18.95;16.80;;;19.10;99.90;;;;;;7368008;19;20383;-58
2023/08/12 04:01:11;;;;;;;18.23;16.33;;;19.10;99.90;;;;;;7372708;19;20568;-59
2023/08/12 04:03:37;;;;;;;20.27;18.08;;;19.10;99.90;;;;;;7370180;19;20018;-59
2023/08/12 04:06:03;;;;;;;19.52;17.33;;;19.10;99.90;;;;;;7373624;19;20015;-59
2023/08/12 04:08:32;;;;;;;21.88;18.58;;;19.10;99.90;;;;;;7371456;19;20489;-59
2023/08/12 04:10:58;;;;;;;24.13;19.45;;;19.20;99.90;;;;;;7369606;19;20109;-58
2023/08/12 04:13:27;;;;;;;20.00;17.90;;;19.20;99.90;;;;;;7369571;19;20022;-59
2023/08/12 04:15:53;;;;;;;20.52;18.40;;;19.20;99.90;;;;;;7371109;19;20031;-58
2023/08/12 04:18:20;;;;;;;20.30;17.73;;;19.20;99.90;;;;;;7373753;19;20015;-58
2023/08/12 04:20:48;;;;;;;22.25;19.17;;;19.20;99.90;;;;;;7370767;19;20604;-58
2023/08/12 04:23:14;;;;;;;20.95;18.70;;;19.30;99.90;;;;;;7371096;19;20018;-58
2023/08/12 04:25:44;;;;;;;21.02;18.67;;;19.30;99.90;;;;;;7369114;19;20069;-58
2023/08/12 04:28:13;;;;;;;24.20;18.95;;;19.30;99.90;;;;;;7369319;19;20014;-58
2023/08/12 04:30:43;;;;;;;22.88;19.20;;;19.30;99.90;;;;;;7367655;19;20071;-58
2023/08/12 04:33:13;;;;;;;21.05;18.40;;;19.40;99.90;;;;;;7371030;19;20097;-58
2023/08/12 04:35:40;;;;;;;21.52;18.52;;;19.40;99.90;;;;;;7367850;19;20019;-58
2023/08/12 04:38:08;;;;;;;22.65;18.30;;;19.40;99.90;;;;;;7370852;19;20107;-58
2023/08/12 04:40:39;;;;;;;20.63;17.77;;;19.40;99.90;;;;;;7368922;19;20129;-58
2023/08/12 04:43:06;;;;;;;21.17;17.93;;;19.30;99.90;;;;;;7369773;19;20031;-58
2023/08/12 04:45:32;;;;;;;24.75;16.88;;;19.40;99.90;;;;;;7366944;19;20286;-61
2023/08/12 04:47:59;;;;;;;21.08;18.63;;;19.30;99.90;;;;;;7371934;19;20467;-58
2023/08/12 04:50:31;;;;;;;20.08;18.10;;;19.30;99.90;;;;;;7367163;19;20502;-58
2023/08/12 04:52:57;;;;;;;21.23;17.27;;;19.30;99.90;;;;;;7370769;19;20043;-58
2023/08/12 04:55:27;;;;;;;25.45;18.75;;;19.40;99.90;;;;;;7369498;19;20534;-58
2023/08/12 04:57:54;;;;;;;23.85;18.27;;;19.30;99.90;;;;;;7370396;19;20035;-58
2023/08/12 05:00:21;;;;;;;20.98;18.17;;;19.30;99.90;;;;;;7369931;19;20022;-61
2023/08/12 05:02:48;;;;;;;24.77;19.52;;;19.30;99.90;;;;;;7366042;19;20513;-58
2023/08/12 05:05:14;;;;;;;22.85;19.23;;;19.30;99.90;;;;;;7369877;19;20015;-58
2023/08/12 05:07:40;;;;;;;21.83;19.05;;;19.30;99.90;;;;;;7373928;19;20118;-58
2023/08/12 05:10:08;;;;;;;24.10;18.77;;;19.30;99.90;;;;;;7370130;19;20018;-57
2023/08/12 05:12:34;;;;;;;22.10;18.67;;;19.30;99.90;;;;;;7365248;19;20043;-58
2023/08/12 05:15:01;;;;;;;22.35;19.33;;;19.40;99.90;;;;;;7370237;19;20041;-59
2023/08/12 05:17:27;;;;;;;23.48;19.17;;;19.40;99.90;;;;;;7372709;19;20125;-57
2023/08/12 05:19:58;;;;;;;25.58;20.88;;;19.40;99.90;;;;;;7375442;19;20566;-57
2023/08/12 05:22:24;;;;;;;25.20;20.40;;;19.40;99.90;;;;;;7377229;19;20407;-58
2023/08/12 05:24:50;;;;;;;24.20;19.88;;;19.40;99.90;;;;;;7376967;19;20018;-57
2023/08/12 05:27:16;;;;;;;25.58;19.95;;;19.50;99.90;;;;;;7377628;19;20014;-58
2023/08/12 05:29:43;;;;;;;27.00;20.45;;;19.60;99.90;;;;;;7375297;19;20090;-59
2023/08/12 05:32:09;;;;;;;23.05;20.63;;;19.60;99.90;;;;;;7377151;19;20484;-58
2023/08/12 05:34:35;;;;;;;23.75;20.50;;;19.70;99.90;;;;;;7374225;19;20027;-59
2023/08/12 05:37:02;;;;;;;23.15;20.92;;;19.70;99.90;;;;;;7375693;19;20031;-58
2023/08/12 05:39:28;;;;;;;25.48;20.63;;;19.70;99.90;;;;;;7377967;19;20026;-58
2023/08/12 05:41:54;;;;;;;23.42;20.92;;;19.80;99.90;;;;;;7372147;19;20482;-58
2023/08/12 05:44:21;;;;;;;25.50;20.10;;;19.90;99.90;;;;;;7373662;19;20018;-59
2023/08/12 05:46:47;;;;;;;26.40;21.50;;;19.90;99.90;;;;;;7372261;19;21020;-58
2023/08/12 05:49:13;;;;;;;23.38;20.98;;;20.00;99.90;;;;;;7376309;19;20421;-58
2023/08/12 05:51:39;;;;;;;22.92;20.52;;;20.10;99.90;;;;;;7369504;19;20022;-59
2023/08/12 05:54:05;;;;;;;24.75;21.00;;;20.20;99.90;;;;;;7375612;19;20018;-58
2023/08/12 05:56:32;;;;;;;24.92;21.65;;;20.30;99.90;;;;;;7375620;19;20565;-58
2023/08/12 05:58:58;;;;;;;21.67;19.35;;;20.40;99.90;;;;;;7374276;19;20051;-58
2023/08/12 06:01:24;;;;;;;22.95;18.98;;;20.60;99.90;;;;;;7378361;19;20018;-58
2023/08/12 06:03:51;;;;;;;23.98;20.58;;;20.80;99.90;;;;;;7376175;19;20018;-61
2023/08/12 06:06:17;;;;;;;24.63;18.38;;;21.10;99.90;;;;;;7374322;19;20026;-62
2023/08/12 06:08:43;;;;;;;20.02;18.08;;;21.40;99.90;;;;;;7375300;19;20525;-59
2023/08/12 06:11:09;;;;;;;22.58;18.48;;;21.60;99.90;;;;;;7373018;19;20018;-58
2023/08/12 06:13:35;;;;;;;20.50;18.30;;;21.60;99.90;;;;;;7373634;19;20021;-58
2023/08/12 06:16:02;;;;;;;22.63;18.20;;;21.50;99.90;;;;;;7376897;19;20021;-58
2023/08/12 06:18:28;;;;;;;20.73;18.55;;;21.40;99.90;;;;;;7373678;19;20365;-58
2023/08/12 06:20:54;;;;;;;22.17;19.45;;;21.30;99.90;;;;;;7374542;19;20046;-58
2023/08/12 06:23:21;;;;;;;21.42;19.13;;;21.30;99.90;;;;;;7373610;19;20042;-61
2023/08/12 06:25:47;;;;;;;23.73;19.23;;;21.20;99.90;;;;;;7372666;19;20489;-59
2023/08/12 06:28:13;;;;;;;22.05;19.85;;;21.10;99.90;;;;;;7377292;19;20017;-58
2023/08/12 06:30:44;;;;;;;25.33;22.52;;;21.00;99.90;;;;;;7375922;19;20118;-60
2023/08/12 06:33:10;;;;;;;26.77;22.15;;;21.00;99.90;;;;;;7377618;19;20356;-59
2023/08/12 06:35:36;;;;;;;23.67;21.17;;;21.10;99.90;;;;;;7375691;19;20442;-59
2023/08/12 06:38:03;;;;;;;24.25;21.30;;;21.20;99.90;;;;;;7377169;19;20025;-60
2023/08/12 06:40:30;;;;;;;25.50;21.70;;;21.20;99.90;;;;;;7376253;19;20018;-59
2023/08/12 06:42:56;;;;;;;27.30;21.90;;;21.20;99.90;;;;;;7374678;19;20018;-59
2023/08/12 06:45:23;;;;;;;23.52;21.08;;;21.30;99.90;;;;;;7375840;19;20105;-59
2023/08/12 06:47:49;;;;;;;25.15;22.70;;;21.30;99.90;;;;;;7374502;19;20017;-61
2023/08/12 06:50:15;;;;;;;25.25;22.55;;;21.20;99.90;;;;;;7377102;19;20022;-60
2023/08/12 06:52:41;;;;;;;26.85;22.30;;;21.20;99.90;;;;;;7373369;19;20018;-60
2023/08/12 06:55:08;;;;;;;30.90;23.73;;;21.20;99.90;;;;;;7376328;19;20467;-59
2023/08/12 06:57:34;;;;;;;24.92;22.33;;;21.20;99.90;;;;;;7373379;19;20025;-59
2023/08/12 07:00:00;;;;;;;24.95;22.27;;;21.10;99.90;;;;;;7376974;19;20017;-59
2023/08/12 07:02:26;;;;;;;26.38;22.08;;;21.10;99.90;;;;;;7373126;19;20023;-59
2023/08/12 07:04:53;;;;;;;26.85;22.65;;;21.10;99.90;;;;;;7370074;19;20006;-60
2023/08/12 07:07:19;;;;;;;27.35;24.50;;;21.10;99.90;;;;;;7372236;19;20409;-60
2023/08/12 07:09:45;;;;;;;29.77;24.83;;;21.10;99.90;;;;;;7373654;19;20014;-60
2023/08/12 07:12:11;;;;;;;31.05;25.20;;;21.10;99.90;;;;;;7373712;19;20022;-60
2023/08/12 07:14:38;;;;;;;28.38;23.55;;;21.10;99.90;;;;;;7373048;19;20022;-58
2023/08/12 07:17:04;;;;;;;28.63;25.45;;;21.10;99.90;;;;;;7370010;19;20494;-60
2023/08/12 07:19:30;;;;;;;26.30;23.70;;;21.00;99.90;;;;;;7372825;19;20473;-58
2023/08/12 07:21:57;;;;;;;25.90;22.20;;;21.00;99.90;;;;;;7374051;19;20026;-60
2023/08/12 07:24:23;;;;;;;27.27;24.13;;;21.00;99.90;;;;;;7372079;19;20505;-58
2023/08/12 07:26:49;;;;;;;25.58;22.90;;;20.90;99.90;;;;;;7372544;19;20030;-60
2023/08/12 07:29:18;;;;;;;28.73;25.13;;;20.90;99.90;;;;;;7371900;19;20019;-60
2023/08/12 07:31:45;;;;;;;26.77;23.27;;;20.80;99.90;;;;;;7373297;19;20011;-58
2023/08/12 07:34:15;;;;;;;27.02;24.25;;;20.90;99.90;;;;;;7370256;19;20018;-58
2023/08/12 07:36:41;;;;;;;25.70;23.00;;;20.80;99.90;;;;;;7371330;19;20029;-58
2023/08/12 07:39:07;;;;;;;27.80;23.80;;;20.80;99.90;;;;;;7371238;19;20348;-58
2023/08/12 07:41:34;;;;;;;27.48;24.50;;;20.70;99.90;;;;;;7369498;19;20015;-58
2023/08/12 07:44:00;;;;;;;28.17;25.25;;;20.80;99.90;;;;;;7369703;19;20486;-61
2023/08/12 07:46:27;;;;;;;27.90;24.58;;;20.70;99.90;;;;;;7372629;19;20016;-59
2023/08/12 07:48:54;;;;;;;30.63;23.70;;;20.80;99.90;;;;;;7374768;19;20014;-60
2023/08/12 07:51:20;;;;;;;27.83;24.30;;;20.80;99.90;;;;;;7373150;19;20603;-60
2023/08/12 07:53:46;;;;;;;29.48;26.15;;;20.70;99.90;;;;;;7370325;19;20407;-59
2023/08/12 07:56:32;;;;;;;31.90;26.33;;;20.70;99.90;;;;;;7371100;19;20027;-59
2023/08/12 07:58:59;;;;;;;28.52;25.50;;;20.70;99.90;;;;;;7371297;19;20022;-58
2023/08/12 08:01:25;;;;;;;29.48;26.55;;;20.60;99.90;;;;;;7373737;19;20487;-62
2023/08/12 08:03:51;;;;;;;34.53;28.35;;;20.60;99.90;;;;;;7370082;19;20090;-58
2023/08/12 08:06:18;;;;;;;32.03;28.50;;;20.60;99.90;;;;;;7370552;19;20023;-58
2023/08/12 08:08:44;;;;;;;32.47;28.77;;;20.60;99.90;;;;;;7371294;19;20022;-58
2023/08/12 08:11:10;;;;;;;32.50;29.13;;;20.50;99.90;;;;;;7371059;19;20082;-58
2023/08/12 08:13:36;;;;;;;31.58;27.92;;;20.50;99.90;;;;;;7372436;19;20090;-59
2023/08/12 08:16:03;;;;;;;38.15;30.88;;;20.40;99.90;;;;;;7371618;19;20023;-60
2023/08/12 08:18:33;;;;;;;39.28;32.30;;;20.40;99.90;;;;;;7369993;19;20620;-59
2023/08/12 08:21:02;;;;;;;41.55;32.42;;;20.40;99.90;;;;;;7373889;19;21033;-61
2023/08/12 08:23:28;;;;;;;36.03;29.38;;;20.30;99.90;;;;;;7370624;19;20023;-61
2023/08/12 08:25:54;;;;;;;34.28;30.50;;;20.30;99.90;;;;;;7373028;19;20017;-59
2023/08/12 08:28:20;;;;;;;37.95;31.13;;;20.30;99.90;;;;;;7369222;19;20015;-61
2023/08/12 08:30:46;;;;;;;37.90;32.55;;;20.30;99.90;;;;;;7374184;19;20018;-59
2023/08/12 08:33:14;;;;;;;42.90;36.55;;;20.20;99.90;;;;;;7370405;19;20018;-61
2023/08/12 08:35:40;;;;;;;45.15;34.88;;;20.20;99.90;;;;;;7370685;19;20376;-61
2023/08/12 08:38:06;;;;;;;43.08;35.50;;;20.20;99.90;;;;;;7367566;19;20033;-61
2023/08/12 08:40:32;;;;;;;43.00;34.90;;;20.20;99.90;;;;;;7369840;19;20043;-62
2023/08/12 08:43:05;;;;;;;58.85;38.05;;;20.20;99.90;;;;;;7371453;19;20048;-61
2023/08/12 08:45:33;;;;;;;44.05;35.00;;;20.20;99.90;;;;;;7368701;19;20018;-60
2023/08/12 08:48:01;;;;;;;32.38;26.27;;;20.10;99.90;;;;;;7369384;19;20046;-58
2023/08/12 08:50:32;;;;;;;21.05;17.48;;;20.10;99.90;;;;;;7372083;19;20022;-61
2023/08/12 08:53:01;;;;;;;21.40;17.05;;;20.00;99.90;;;;;;7381416;19;20533;-61
2023/08/12 08:55:30;;;;;;;13.88;12.27;;;19.90;99.90;;;;;;7380650;19;20022;-61
2023/08/12 08:57:57;;;;;;;22.00;19.60;;;19.80;99.90;;;;;;7379417;19;20757;-59
2023/08/12 09:00:23;;;;;;;20.58;16.90;;;19.80;99.90;;;;;;7379694;19;20347;-59
2023/08/12 09:02:51;;;;;;;27.92;22.13;;;19.70;99.90;;;;;;7375955;19;20533;-62
2023/08/12 09:05:20;;;;;;;13.40;10.48;;;19.70;99.90;;;;;;7378613;19;20101;-58
2023/08/12 09:07:47;;;;;;;13.68;9.88;;;19.60;99.90;;;;;;7373588;19;20018;-58
2023/08/12 09:10:13;;;;;;;17.63;11.25;;;19.60;99.90;;;;;;7378302;19;20672;-58
2023/08/12 09:12:40;;;;;;;15.55;11.02;;;19.50;99.90;;;;;;7375471;19;20014;-58
2023/08/12 09:15:07;;;;;;;16.25;10.57;;;19.50;99.90;;;;;;7376987;19;20659;-58
2023/08/12 09:17:33;;;;;;;11.70;9.80;;;19.50;99.90;;;;;;7377067;19;20489;-59
2023/08/12 09:20:00;;;;;;;11.60;8.95;;;19.40;99.90;;;;;;7377844;19;20480;-61
2023/08/12 09:22:26;;;;;;;11.90;8.35;;;19.40;99.90;;;;;;7377010;19;20037;-61
2023/08/12 09:24:58;;;;;;;14.52;7.93;;;19.40;99.90;;;;;;7377419;19;20025;-59
2023/08/12 09:27:31;;;;;;;14.07;8.35;;;19.40;99.90;;;;;;7376962;19;20343;-61
2023/08/12 09:29:58;;;;;;;12.43;7.90;;;19.30;99.90;;;;;;7379963;19;20098;-61
2023/08/12 09:32:24;;;;;;;14.82;9.43;;;19.30;99.90;;;;;;7374953;19;20024;-61
2023/08/12 09:34:55;;;;;;;17.30;10.75;;;19.30;99.90;;;;;;7372062;19;20018;-61
2023/08/12 09:37:23;;;;;;;17.50;11.68;;;19.40;99.90;;;;;;7374203;19;20046;-61
2023/08/12 09:39:51;;;;;;;19.20;12.25;;;19.40;99.90;;;;;;7370170;19;21154;-59
2023/08/12 09:42:18;;;;;;;16.52;11.77;;;19.40;99.90;;;;;;7374076;19;20262;-59
2023/08/12 09:44:46;;;;;;;25.38;16.08;;;19.40;99.90;;;;;;7378364;19;20082;-64
2023/08/12 09:47:12;;;;;;;18.38;13.18;;;19.50;99.90;;;;;;7380210;19;20022;-59
2023/08/12 09:49:40;;;;;;;14.85;11.07;;;19.40;99.90;;;;;;7374378;19;20074;-62
2023/08/12 09:52:07;;;;;;;17.17;12.82;;;19.50;99.90;;;;;;7377302;19;20048;-61
2023/08/12 09:54:34;;;;;;;17.02;13.07;;;19.60;99.90;;;;;;7372815;19;20496;-61
2023/08/12 09:57:06;;;;;;;19.95;14.27;;;19.70;99.90;;;;;;7375401;19;20110;-61
2023/08/12 09:59:35;;;;;;;20.45;16.13;;;19.70;99.90;;;;;;7372436;19;20015;-59
2023/08/12 10:02:07;;;;;;;14.13;12.60;;;19.80;99.90;;;;;;7372864;19;20398;-59
2023/08/12 10:04:42;;;;;;;21.85;15.13;;;19.80;99.90;;;;;;7374990;19;20018;-60
2023/08/12 10:07:10;;;;;;;18.83;15.25;;;19.70;99.90;;;;;;7378035;19;20029;-62
2023/08/12 10:09:39;;;;;;;18.42;15.50;;;19.70;99.90;;;;;;7373233;19;20025;-59
2023/08/12 10:12:10;;;;;;;21.90;16.67;;;19.70;99.90;;;;;;7378677;19;20067;-59
2023/08/12 10:14:37;;;;;;;19.15;16.63;;;19.80;99.90;;;;;;7378017;19;20577;-60
2023/08/12 10:17:04;;;;;;;22.42;17.45;;;19.80;99.90;;;;;;7376254;19;20034;-60
2023/08/12 10:19:31;;;;;;;22.02;16.83;;;19.80;99.90;;;;;;7371442;19;20025;-59
2023/08/12 10:21:59;;;;;;;16.20;14.23;;;19.80;99.90;;;;;;7374565;19;20465;-60
2023/08/12 10:24:30;;;;;;;16.52;14.70;;;19.90;99.90;;;;;;7375094;19;20019;-60
2023/08/12 10:26:56;;;;;;;16.85;15.15;;;19.80;99.90;;;;;;7377170;19;20022;-59
2023/08/12 10:29:24;;;;;;;20.48;15.27;;;19.90;99.90;;;;;;7377754;19;20520;-60
2023/08/12 10:31:51;;;;;;;23.23;18.77;;;19.80;99.90;;;;;;7377528;19;20027;-60
2023/08/12 10:34:25;;;;;;;16.38;13.82;;;19.90;99.90;;;;;;7375198;19;20023;-59
2023/08/12 10:36:57;;;;;;;10.13;9.02;;;20.00;99.90;;;;;;7373711;19;20028;-59
2023/08/12 10:39:30;;;;;;;9.57;6.72;;;20.00;99.90;;;;;;7378909;19;20022;-59
2023/08/12 10:41:57;;;;;;;6.05;4.13;;;19.90;99.90;;;;;;7379353;19;20878;-59
2023/08/12 10:44:50;;;;;;;6.63;5.93;;;19.90;99.90;;;;;;7377867;19;20107;-59
2023/08/12 10:47:16;;;;;;;5.72;5.13;;;19.90;99.90;;;;;;7378964;19;20018;-59
2023/08/12 10:49:47;;;;;;;5.35;4.60;;;20.00;99.90;;;;;;7378429;19;20019;-60
2023/08/12 10:52:30;;;;;;;4.55;3.40;;;20.00;99.90;;;;;;7377788;19;20093;-59
2023/08/12 10:55:23;;;;;;;4.38;3.13;;;20.00;99.90;;;;;;7372521;19;20106;-59
2023/08/12 10:57:54;;;;;;;3.53;2.50;;;20.10;99.90;;;;;;7372842;19;20010;-59
2023/08/12 11:00:28;;;;;;;3.67;2.97;;;20.10;99.90;;;;;;7376030;19;20052;-59
2023/08/12 11:02:56;;;;;;;4.15;3.25;;;20.10;99.90;;;;;;7354205;19;20027;-59
2023/08/12 11:05:24;;;;;;;3.22;1.92;;;20.00;99.90;;;;;;7369784;19;20018;-59
2023/08/12 11:08:01;;;;;;;3.33;2.33;;;20.00;99.90;;;;;;7371179;19;20035;-58
2023/08/12 11:10:31;;;;;;;1.15;1.00;;;20.00;99.90;;;;;;7370225;19;20410;-59
2023/08/12 11:12:58;;;;;;;3.65;1.60;;;20.00;99.90;;;;;;7373211;19;20022;-60
2023/08/12 11:15:41;;;;;;;2.10;1.40;;;20.10;99.90;;;;;;7369494;19;20014;-60
2023/08/12 11:18:10;;;;;;;2.50;1.35;;;20.20;99.90;;;;;;7371045;19;20399;-60
2023/08/12 11:20:37;;;;;;;2.60;1.55;;;20.20;99.90;;;;;;7370924;19;20014;-58
2023/08/12 11:23:05;;;;;;;2.17;1.55;;;20.20;99.90;;;;;;7370824;19;20010;-58
2023/08/12 11:25:32;;;;;;;9.43;8.40;;;20.30;99.90;;;;;;7368341;19;20913;-59
2023/08/12 11:27:58;;;;;;;2.75;1.60;;;20.40;99.90;;;;;;7370655;19;20018;-59
2023/08/12 11:30:28;;;;;;;3.63;1.67;;;20.50;99.90;;;;;;7366914;19;20022;-59
2023/08/12 11:32:55;;;;;;;4.35;2.15;;;20.60;99.90;;;;;;7367414;19;20339;-59
2023/08/12 11:35:22;;;;;;;3.80;1.90;;;20.70;99.90;;;;;;7365507;19;20039;-60
2023/08/12 11:37:53;;;;;;;2.80;1.90;;;20.80;99.90;;;;;;7368838;19;20596;-59
2023/08/12 11:40:20;;;;;;;2.90;2.03;;;20.90;99.90;;;;;;7367563;19;20014;-60
2023/08/12 11:42:48;;;;;;;4.05;2.30;;;21.10;99.90;;;;;;7369676;19;20014;-60
2023/08/12 11:45:17;;;;;;;2.70;2.10;;;21.20;99.90;;;;;;7367675;19;20032;-59
2023/08/12 11:47:43;;;;;;;5.13;2.10;;;21.40;99.90;;;;;;7368918;19;20015;-61
2023/08/12 11:50:11;;;;;;;2.10;1.70;;;21.50;99.90;;;;;;7366757;19;20022;-60
2023/08/12 11:52:39;;;;;;;3.75;2.17;;;21.70;99.90;;;;;;7371189;19;20018;-60
2023/08/12 11:55:06;;;;;;;4.05;2.55;;;21.70;99.90;;;;;;7371867;19;20037;-61
2023/08/12 11:57:36;;;;;;;3.97;3.50;;;21.80;99.90;;;;;;7367819;19;20446;-60
2023/08/12 12:00:09;;;;;;;4.20;3.20;;;21.80;99.90;;;;;;7366538;19;20114;-61
2023/08/12 12:02:50;;;;;;;3.58;2.45;;;21.60;99.90;;;;;;7365798;19;20018;-62
2023/08/12 12:05:18;;;;;;;2.95;1.92;;;21.60;99.90;;;;;;7369528;19;20085;-61
2023/08/12 12:07:44;;;;;;;7.38;6.30;;;21.50;99.90;;;;;;7367308;19;20107;-63
2023/08/12 12:10:18;;;;;;;30.30;27.20;;;21.50;99.90;;;;;;7364747;19;20019;-63
2023/08/12 12:12:44;;;;;;;42.97;38.72;;;21.30;99.90;;;;;;7364970;19;20023;-63
2023/08/12 12:15:12;;;;;;;25.60;22.85;;;21.10;99.90;;;;;;7368255;19;20444;-63
2023/08/12 12:17:41;;;;;;;12.57;11.10;;;21.00;99.90;;;;;;7370832;19;20015;-63
2023/08/12 12:20:10;;;;;;;40.85;36.65;;;20.90;99.90;;;;;;7365371;19;20022;-63
2023/08/12 12:22:37;;;;;;;5.05;3.45;;;21.10;99.90;;;;;;7366043;19;20022;-63
2023/08/12 12:25:12;;;;;;;100.78;90.85;;;21.70;99.90;;;;;;7368172;19;20021;-65
2023/08/12 12:27:39;;;;;;;8.35;5.13;;;22.10;99.90;;;;;;7374304;19;20018;-63
2023/08/12 12:30:08;;;;;;;13.05;10.35;;;22.80;99.90;;;;;;7376379;19;20042;-63
2023/08/12 12:32:35;;;;;;;5.75;3.20;;;23.50;99.90;;;;;;7374030;19;20474;-63
2023/08/12 12:35:02;;;;;;;11.55;10.02;;;24.00;99.90;;;;;;7373162;19;20015;-64